Time;durP1;ratioP1;P1;durP2;ratioP2;P2;SDS_P1;SDS_P2;PMS_P1;PMS_P2;Temp;Humidity;BMP_temperature;BMP_pressure;BME280_temperature;BME280_humidity;BME280_pressure;Samples;Min_cycle;Max_cycle;Signal;HPM_P1;HPM_P2
2021/05/25 07:51:32;;;;;;;9.20;3.50;;;589.70;1817.60;;;;;;4912960;29;20045;-82
2021/05/25 07:53:58;;;;;;;7.70;3.65;;;614.50;1843.20;;;;;;4910355;29;20028;-81
2021/05/25 07:56:25;;;;;;;6.57;3.40;;;614.70;1792.00;;;;;;4913153;29;20367;-86
2021/05/25 07:58:52;;;;;;;11.93;3.88;;;614.80;1817.60;;;;;;4903097;29;20040;-82
2021/05/25 08:01:18;;;;;;;15.30;3.67;;;614.90;1817.60;;;;;;4904607;29;20071;-85
2021/05/25 08:03:44;;;;;;;10.50;3.38;;;615.00;1740.80;;;;;;4900384;29;20032;-85
2021/05/25 08:06:10;;;;;;;5.72;3.47;;;615.10;1766.40;;;;;;4898383;29;20032;-80
2021/05/25 08:08:35;;;;;;;6.95;3.47;;;615.10;1766.40;;;;;;4925101;29;20055;-82
2021/05/25 08:11:01;;;;;;;14.75;4.15;;;615.10;1766.40;;;;;;4910888;29;20474;-80
2021/05/25 08:13:28;;;;;;;6.32;3.95;;;615.30;1766.40;;;;;;4902068;29;20059;-81
2021/05/25 08:15:55;;;;;;;6.78;3.95;;;615.30;1766.40;;;;;;4905120;29;20490;-84
2021/05/25 08:21:11;;;;;;;7.47;3.72;;;640.10;1740.80;;;;;;4849487;29;20124;-80
2021/05/25 08:23:37;;;;;;;9.63;3.67;;;640.20;1766.40;;;;;;4850566;29;20046;-79
2021/05/25 08:26:05;;;;;;;9.63;3.88;;;640.30;1792.00;;;;;;4847694;29;20030;-81
2021/05/25 08:28:30;;;;;;;7.28;3.95;;;640.40;1740.80;;;;;;4852058;29;20081;-80
2021/05/25 08:30:56;;;;;;;9.70;3.92;;;640.50;1715.20;;;;;;4844981;29;20064;-80
2021/05/25 08:33:22;;;;;;;8.60;3.90;;;640.50;1715.20;;;;;;4855147;29;20089;-79
2021/05/25 08:35:49;;;;;;;9.93;4.05;;;640.50;1740.80;;;;;;4855842;29;20112;-79
2021/05/25 08:38:20;;;;;;;7.97;3.60;;;640.70;1740.80;;;;;;4856619;29;20117;-79
2021/05/25 08:40:46;;;;;;;8.90;3.72;;;640.70;1740.80;;;;;;4854468;29;20022;-80
2021/05/25 08:43:12;;;;;;;10.48;4.45;;;640.90;1740.80;;;;;;4857448;29;20060;-80
2021/05/25 08:45:38;;;;;;;14.75;3.90;;;640.90;1689.60;;;;;;4853708;29;20083;-80
2021/05/25 08:48:04;;;;;;;8.77;4.40;;;640.90;1664.00;;;;;;4839160;29;20041;-80
2021/05/25 08:50:30;;;;;;;8.60;3.70;;;665.70;1715.20;;;;;;4849833;29;20083;-81
2021/05/25 08:53:01;;;;;;;8.30;4.20;;;665.70;1715.20;;;;;;4846719;29;20493;-86
2021/05/25 08:55:29;;;;;;;13.48;4.53;;;665.80;1740.80;;;;;;4851115;29;20022;-83
2021/05/25 08:57:55;;;;;;;13.82;4.85;;;665.90;1689.60;;;;;;4872055;29;20032;-79
2021/05/25 09:00:21;;;;;;;10.90;4.88;;;665.90;1689.60;;;;;;4917818;29;20024;-80
2021/05/25 09:02:47;;;;;;;14.95;4.40;;;666.00;1689.60;;;;;;4901029;29;20116;-83
2021/05/25 09:05:15;;;;;;;11.90;4.97;;;665.90;1715.20;;;;;;4901432;29;20111;-80
2021/05/25 09:07:47;;;;;;;12.27;4.20;;;666.00;1638.40;;;;;;4901126;29;20075;-85
2021/05/25 09:10:14;;;;;;;10.50;4.53;;;666.20;1664.00;;;;;;4900896;29;20032;-79
2021/05/25 09:12:49;;;;;;;9.52;4.60;;;666.30;1664.00;;;;;;4901328;29;20051;-80
2021/05/25 09:29:50;;;;;;;13.55;5.78;;;666.50;1689.60;;;;;;5069855;28;20383;-82
2021/05/25 09:32:17;;;;;;;13.68;5.18;;;691.90;1612.80;;;;;;5033925;28;20364;-84
2021/05/25 09:34:42;;;;;;;14.27;5.80;;;691.70;1612.80;;;;;;5048970;28;20048;-83
2021/05/25 09:37:09;;;;;;;10.85;5.50;;;691.80;1612.80;;;;;;5049949;28;20487;-82
2021/05/25 09:39:41;;;;;;;9.05;5.72;;;691.80;1587.20;;;;;;5075423;28;20060;-84
2021/05/25 09:42:10;;;;;;;11.52;5.47;;;692.00;1587.20;;;;;;5021324;28;20052;-79
2021/05/25 09:44:37;;;;;;;10.13;5.03;;;692.00;1587.20;;;;;;5047895;28;20059;-79
2021/05/25 09:47:04;;;;;;;14.80;5.82;;;692.10;1561.60;;;;;;5047684;28;20017;-80
2021/05/25 09:49:31;;;;;;;9.80;4.90;;;716.80;1561.60;;;;;;5047610;28;20474;-80
2021/05/25 09:52:11;;;;;;;10.98;5.53;;;716.80;1536.00;;;;;;5048822;28;20071;-86
2021/05/25 09:54:38;;;;;;;11.93;5.38;;;716.80;1587.20;;;;;;5031273;28;20067;-86
2021/05/25 09:57:05;;;;;;;8.40;5.47;;;716.90;1536.00;;;;;;5044481;28;20406;-83
2021/05/25 09:59:36;;;;;;;12.07;5.35;;;716.90;1510.40;;;;;;5049054;28;20021;-80
2021/05/25 10:02:21;;;;;;;10.65;5.53;;;717.00;1510.40;;;;;;5046161;28;20560;-78
2021/05/25 10:05:04;;;;;;;10.32;5.32;;;717.10;1484.80;;;;;;5028710;28;20037;-81
2021/05/25 10:07:30;;;;;;;14.18;5.15;;;717.10;1459.20;;;;;;5030192;28;20133;-80
2021/05/25 10:09:57;;;;;;;12.20;5.05;;;717.20;1433.60;;;;;;5030952;28;20053;-78
2021/05/25 10:12:27;;;;;;;12.00;5.03;;;717.30;1433.60;;;;;;5047807;28;20063;-76
2021/05/25 10:14:53;;;;;;;13.65;4.82;;;717.40;1382.40;;;;;;5047612;28;20494;-77
2021/05/25 10:20:05;;;;;;;13.38;4.75;;;717.50;1382.40;;;;;;5048344;28;20071;-78
2021/05/25 10:22:32;;;;;;;10.82;4.60;;;717.60;1382.40;;;;;;5054411;28;20064;-78
2021/05/25 10:24:58;;;;;;;13.65;4.35;;;717.70;1305.60;;;;;;5027002;28;20029;-79
2021/05/25 10:27:28;;;;;;;11.45;4.60;;;742.50;1356.80;;;;;;5023725;28;20034;-80
2021/05/25 10:29:54;;;;;;;12.65;4.57;;;742.50;1305.60;;;;;;5017506;28;20072;-85
2021/05/25 10:32:25;;;;;;;15.35;5.72;;;742.70;1280.00;;;;;;5017198;28;20080;-82
2021/05/25 10:34:54;;;;;;;12.02;6.97;;;742.70;1280.00;;;;;;5016442;28;20044;-82
2021/05/25 10:37:22;;;;;;;12.93;4.55;;;742.80;1254.40;;;;;;5014007;28;20124;-81
2021/05/25 10:39:55;;;;;;;15.07;8.73;;;742.80;1228.80;;;;;;5016995;28;20079;-82
2021/05/25 10:42:23;;;;;;;7.38;4.45;;;742.70;1203.20;;;;;;5010782;28;20414;-81
2021/05/25 10:45:13;;;;;;;12.38;4.30;;;742.60;1254.40;;;;;;5015297;28;20086;-83
2021/05/25 10:47:56;;;;;;;12.25;4.93;;;742.80;1177.60;;;;;;5015406;28;20044;-81
2021/05/25 10:52:56;;;;;;;12.20;6.18;;;742.80;1177.60;;;;;;5033314;28;20764;-80
2021/05/25 10:55:33;;;;;;;15.75;7.63;;;742.80;1126.40;;;;;;5014486;28;20060;-80
2021/05/25 10:58:01;;;;;;;13.10;5.40;;;742.80;1203.20;;;;;;5015667;28;20099;-81
2021/05/25 11:00:29;;;;;;;10.43;4.45;;;742.80;1203.20;;;;;;5015609;28;20399;-80
2021/05/25 11:03:21;;;;;;;17.63;4.55;;;742.90;1126.40;;;;;;5015274;28;20044;-82
2021/05/25 11:05:58;;;;;;;10.50;3.63;;;742.90;1203.20;;;;;;5039642;28;20109;-80
2021/05/25 11:08:34;;;;;;;11.30;4.57;;;743.00;1152.00;;;;;;5038328;28;20391;-80
2021/05/25 11:11:00;;;;;;;11.75;3.83;;;742.90;1203.20;;;;;;5043083;28;20021;-81
2021/05/25 11:13:30;;;;;;;17.88;4.18;;;742.90;1126.40;;;;;;5016286;28;20037;-81
2021/05/25 11:16:24;;;;;;;10.43;3.15;;;743.10;1177.60;;;;;;5015532;28;20036;-80
2021/05/25 11:21:39;;;;;;;5.65;3.20;;;768.00;1100.80;;;;;;5034087;28;20061;-85
2021/05/25 11:24:29;;;;;;;9.98;4.38;;;743.30;1075.20;;;;;;5015575;28;20364;-85
2021/05/25 11:27:13;;;;;;;10.80;3.60;;;768.00;1100.80;;;;;;5013642;28;20060;-85
2021/05/25 11:29:54;;;;;;;12.02;4.00;;;768.10;1049.60;;;;;;5016549;28;20034;-86
2021/05/25 11:32:22;;;;;;;7.82;3.63;;;768.00;1177.60;;;;;;5015629;28;20033;-82
2021/05/25 11:35:15;;;;;;;10.32;3.50;;;768.10;1075.20;;;;;;5015501;28;20045;-82
2021/05/25 11:37:46;;;;;;;13.60;3.47;;;768.10;1126.40;;;;;;5012454;28;20092;-84
2021/05/25 11:40:14;;;;;;;9.35;3.40;;;768.20;1075.20;;;;;;5012639;28;20017;-83
2021/05/25 11:42:43;;;;;;;11.82;4.10;;;768.10;1100.80;;;;;;5015994;28;20036;-82
2021/05/25 11:45:10;;;;;;;12.15;4.20;;;768.10;1049.60;;;;;;5015772;28;20043;-82
2021/05/25 11:47:37;;;;;;;12.30;3.72;;;768.10;1075.20;;;;;;5015944;28;20068;-83
2021/05/25 11:50:04;;;;;;;10.60;4.53;;;768.10;1126.40;;;;;;5038123;28;20060;-83
2021/05/25 11:52:38;;;;;;;16.05;4.50;;;768.10;1075.20;;;;;;5015465;28;20039;-83
2021/05/25 11:55:12;;;;;;;18.77;4.88;;;768.20;1075.20;;;;;;5014049;28;20375;-84
2021/05/25 11:57:45;;;;;;;16.73;4.32;;;768.20;1100.80;;;;;;5006830;28;20037;-85
2021/05/25 12:00:18;;;;;;;14.10;3.88;;;768.10;1152.00;;;;;;5015241;28;20036;-84
2021/05/25 12:02:47;;;;;;;9.35;4.07;;;768.20;1024.00;;;;;;5015460;28;20396;-84
2021/05/25 12:05:20;;;;;;;71.60;15.05;;;768.20;1075.20;;;;;;5015202;28;20022;-84
2021/05/25 12:07:48;;;;;;;15.95;5.40;;;768.30;1075.20;;;;;;5013241;28;20030;-87
2021/05/25 12:10:19;;;;;;;14.65;3.92;;;768.40;1152.00;;;;;;5015857;28;20037;-85
2021/05/25 12:12:46;;;;;;;15.55;5.75;;;768.40;1075.20;;;;;;5012607;28;20623;-79
2021/05/25 12:15:12;;;;;;;11.55;3.10;;;768.40;1075.20;;;;;;5014409;28;20036;-80
2021/05/25 12:17:43;;;;;;;10.95;3.63;;;768.50;1049.60;;;;;;5014222;28;20081;-81
2021/05/25 12:20:16;;;;;;;8.75;3.08;;;768.40;998.40;;;;;;5014444;28;20432;-79
2021/05/25 12:22:42;;;;;;;12.40;3.30;;;768.40;972.80;;;;;;5039360;28;20104;-80
2021/05/25 12:25:20;;;;;;;14.68;4.00;;;768.50;998.40;;;;;;5014033;28;20071;-79
2021/05/25 12:27:51;;;;;;;12.02;3.55;;;768.60;1049.60;;;;;;5011778;28;20069;-85
2021/05/25 12:30:19;;;;;;;11.63;3.08;;;768.60;1100.80;;;;;;5010138;28;20036;-84
2021/05/25 12:32:46;;;;;;;14.13;3.88;;;768.50;1126.40;;;;;;5038040;28;20480;-81
2021/05/25 12:35:16;;;;;;;15.80;4.18;;;768.40;1177.60;;;;;;5014968;28;20029;-81
2021/05/25 12:37:42;;;;;;;9.43;3.15;;;768.50;1100.80;;;;;;5014816;28;20033;-84
2021/05/25 12:40:12;;;;;;;9.80;4.03;;;768.60;1075.20;;;;;;5032470;28;20079;-80
2021/05/25 12:42:41;;;;;;;11.10;3.65;;;768.70;1075.20;;;;;;5014379;28;20025;-81
2021/05/25 12:45:14;;;;;;;10.65;4.03;;;768.70;1152.00;;;;;;5032362;28;20041;-80
2021/05/25 12:47:49;;;;;;;18.60;4.78;;;768.70;1100.80;;;;;;5048051;28;20025;-81
2021/05/25 12:50:23;;;;;;;10.32;4.15;;;768.60;1049.60;;;;;;5030980;28;20025;-82
2021/05/25 12:53:02;;;;;;;18.35;3.78;;;768.70;1049.60;;;;;;5014567;28;20032;-80
2021/05/25 12:55:28;;;;;;;11.35;3.13;;;768.60;1100.80;;;;;;5026798;28;20059;-80
2021/05/25 12:57:55;;;;;;;9.18;4.13;;;768.60;1075.20;;;;;;5015243;28;20535;-80
2021/05/25 13:00:35;;;;;;;12.57;4.15;;;768.60;1049.60;;;;;;5014533;28;20029;-82
2021/05/25 13:03:02;;;;;;;14.13;3.58;;;768.50;1075.20;;;;;;5014306;28;20100;-80
2021/05/25 13:05:29;;;;;;;7.82;3.65;;;768.60;1075.20;;;;;;5018410;28;20044;-80
2021/05/25 13:10:31;;;;;;;12.23;3.20;;;768.60;1075.20;;;;;;5031594;28;20036;-81
2021/05/25 13:13:08;;;;;;;7.32;3.30;;;768.80;1049.60;;;;;;5031998;28;20124;-80
2021/05/25 13:15:39;;;;;;;12.32;3.55;;;768.70;1126.40;;;;;;5013469;28;20124;-79
2021/05/25 13:18:10;;;;;;;10.32;4.13;;;768.80;1075.20;;;;;;5032173;28;20200;-80
2021/05/25 13:20:37;;;;;;;12.07;3.75;;;768.60;1100.80;;;;;;5018078;28;20097;-80
2021/05/25 13:23:24;;;;;;;11.70;3.58;;;768.30;1126.40;;;;;;5028224;28;20014;-79
2021/05/25 13:26:08;;;;;;;10.82;3.38;;;743.30;1126.40;;;;;;5011595;28;20026;-79
2021/05/25 13:28:48;;;;;;;7.00;3.33;;;742.90;1152.00;;;;;;5012788;28;20510;-79
2021/05/25 13:31:24;;;;;;;8.10;2.83;;;742.80;1177.60;;;;;;5030579;28;20036;-79
2021/05/25 13:33:52;;;;;;;13.57;3.92;;;742.60;1203.20;;;;;;5030427;28;20397;-79
2021/05/25 13:36:20;;;;;;;13.07;3.88;;;742.50;1177.60;;;;;;5031029;28;20033;-80
2021/05/25 13:38:46;;;;;;;7.25;3.70;;;742.40;1228.80;;;;;;5012796;28;20026;-80
2021/05/25 13:41:19;;;;;;;10.50;3.35;;;742.40;1177.60;;;;;;5013363;28;20033;-80
2021/05/25 13:43:52;;;;;;;14.98;3.25;;;717.70;1177.60;;;;;;5013871;28;20036;-79
2021/05/25 13:46:18;;;;;;;14.82;6.22;;;742.50;1203.20;;;;;;5013895;28;20385;-79
2021/05/25 13:48:44;;;;;;;12.85;6.40;;;742.50;1254.40;;;;;;5013389;28;20025;-79
2021/05/25 13:51:10;;;;;;;9.40;4.30;;;742.40;1228.80;;;;;;5013536;28;20041;-79
2021/05/25 13:53:37;;;;;;;9.55;4.55;;;717.70;1203.20;;;;;;5013669;28;20043;-80
2021/05/25 13:56:08;;;;;;;13.30;3.70;;;717.70;1203.20;;;;;;5013516;28;20038;-79
2021/05/25 13:58:35;;;;;;;9.93;4.07;;;717.50;1203.20;;;;;;5013905;28;20117;-80
2021/05/25 14:01:22;;;;;;;7.80;3.60;;;717.70;1203.20;;;;;;5013324;28;20029;-81
2021/05/25 14:03:47;;;;;;;9.38;3.85;;;717.50;1254.40;;;;;;5032902;28;20052;-80
2021/05/25 14:06:13;;;;;;;17.55;4.65;;;717.40;1228.80;;;;;;5017443;28;20572;-81
2021/05/25 14:08:38;;;;;;;11.90;4.30;;;717.30;1228.80;;;;;;5046213;28;20065;-81
2021/05/25 14:11:04;;;;;;;10.93;3.63;;;717.10;1228.80;;;;;;5042016;28;20062;-81
2021/05/25 14:13:31;;;;;;;10.38;6.50;;;717.10;1254.40;;;;;;5019049;28;20029;-83
2021/05/25 14:15:58;;;;;;;11.77;4.97;;;717.10;1254.40;;;;;;5016990;28;20053;-81
2021/05/25 14:18:24;;;;;;;9.18;3.85;;;717.10;1254.40;;;;;;5017704;28;20030;-79
2021/05/25 14:20:49;;;;;;;12.23;4.03;;;716.90;1228.80;;;;;;5017333;28;20048;-80
2021/05/25 14:23:16;;;;;;;8.90;4.00;;;716.80;1228.80;;;;;;5017105;28;20028;-79
2021/05/25 14:25:43;;;;;;;11.10;3.88;;;716.80;1280.00;;;;;;5017587;28;20064;-79
2021/05/25 14:28:10;;;;;;;9.82;3.97;;;716.80;1254.40;;;;;;5016239;28;20041;-79
2021/05/25 14:30:37;;;;;;;9.27;3.30;;;692.10;1254.40;;;;;;5017785;28;20132;-79
2021/05/25 14:33:04;;;;;;;11.93;3.90;;;691.90;1254.40;;;;;;5017484;28;20049;-80
2021/05/25 14:35:30;;;;;;;8.70;3.72;;;691.90;1254.40;;;;;;5017246;28;20423;-79
2021/05/25 14:37:56;;;;;;;11.25;3.88;;;691.70;1280.00;;;;;;5016942;28;20076;-80
2021/05/25 14:40:22;;;;;;;9.52;3.95;;;691.80;1254.40;;;;;;5050305;28;20053;-80
2021/05/25 14:42:48;;;;;;;8.43;3.63;;;691.90;1254.40;;;;;;5016918;28;20052;-80
2021/05/25 14:45:13;;;;;;;10.95;3.13;;;692.10;1280.00;;;;;;5017552;28;20355;-83
2021/05/25 14:47:39;;;;;;;11.82;3.42;;;692.10;1228.80;;;;;;5051199;28;20352;-83
2021/05/25 14:52:55;;;;;;;13.38;3.30;;;692.10;1254.40;;;;;;5035401;28;20041;-83
2021/05/25 14:55:23;;;;;;;10.82;3.38;;;692.00;1228.80;;;;;;5016631;28;20021;-79
2021/05/25 14:57:49;;;;;;;10.13;3.35;;;691.90;1228.80;;;;;;5016243;28;20041;-82
2021/05/25 15:00:18;;;;;;;9.70;2.90;;;691.90;1228.80;;;;;;5041686;28;20025;-83
2021/05/25 15:02:55;;;;;;;10.10;3.67;;;691.90;1254.40;;;;;;5017145;28;20497;-78
2021/05/25 15:05:32;;;;;;;13.05;4.00;;;691.90;1254.40;;;;;;5034101;28;20025;-80
2021/05/25 15:08:01;;;;;;;9.15;3.70;;;691.90;1280.00;;;;;;5016279;28;20479;-78
2021/05/25 15:10:27;;;;;;;15.25;3.55;;;691.90;1254.40;;;;;;5038126;28;20037;-78
2021/05/25 15:12:53;;;;;;;14.02;3.55;;;691.90;1254.40;;;;;;5040278;28;20026;-78
2021/05/25 15:15:21;;;;;;;15.75;4.68;;;691.60;1280.00;;;;;;5015103;28;20130;-78
2021/05/25 15:17:48;;;;;;;17.55;10.10;;;691.80;1331.20;;;;;;5015758;28;20036;-79
2021/05/25 15:20:15;;;;;;;12.43;6.22;;;691.70;1356.80;;;;;;5014950;28;20357;-78
2021/05/25 15:22:41;;;;;;;19.30;5.95;;;691.80;1382.40;;;;;;5019872;28;20044;-81
2021/05/25 15:25:10;;;;;;;11.38;5.40;;;691.90;1356.80;;;;;;5020025;28;20124;-81
2021/05/25 15:27:36;;;;;;;5.30;3.75;;;691.90;1382.40;;;;;;5020221;28;20041;-78
2021/05/25 15:30:03;;;;;;;14.55;4.70;;;692.00;1305.60;;;;;;4997095;28;20039;-78
2021/05/25 15:32:29;;;;;;;14.20;4.30;;;692.00;1356.80;;;;;;4998494;28;20045;-79
2021/05/25 15:34:55;;;;;;;12.27;4.03;;;691.90;1356.80;;;;;;5001477;28;20037;-78
2021/05/25 15:37:20;;;;;;;11.05;4.28;;;691.90;1331.20;;;;;;4992690;28;20038;-78
2021/05/25 15:39:46;;;;;;;10.55;4.97;;;691.70;1382.40;;;;;;4993696;28;20551;-78
2021/05/25 15:42:12;;;;;;;12.63;4.78;;;691.70;1408.00;;;;;;4992543;28;20124;-79
2021/05/25 15:44:39;;;;;;;18.45;5.00;;;691.50;1433.60;;;;;;4991374;28;20065;-78
2021/05/25 15:47:04;;;;;;;10.43;4.80;;;691.40;1408.00;;;;;;4993422;28;20038;-78
2021/05/25 15:49:30;;;;;;;13.02;5.35;;;691.20;1433.60;;;;;;4991761;28;20046;-77
2021/05/25 15:51:56;;;;;;;9.68;4.68;;;666.50;1433.60;;;;;;4993077;28;20082;-77
2021/05/25 15:54:23;;;;;;;9.43;4.80;;;666.10;1459.20;;;;;;4993469;28;20045;-78
2021/05/25 15:56:53;;;;;;;11.68;5.63;;;665.90;1484.80;;;;;;4992900;28;20062;-78
2021/05/25 15:59:19;;;;;;;7.97;5.13;;;665.90;1459.20;;;;;;4989163;28;20180;-78
2021/05/25 16:01:45;;;;;;;11.48;5.30;;;665.80;1484.80;;;;;;4992589;28;20125;-78
2021/05/25 16:04:10;;;;;;;10.82;4.80;;;665.70;1510.40;;;;;;4993169;28;20034;-79
2021/05/25 16:06:39;;;;;;;9.93;5.15;;;665.70;1510.40;;;;;;4994192;28;20026;-80
2021/05/25 16:09:05;;;;;;;12.70;5.05;;;665.60;1510.40;;;;;;4992169;28;20030;-79
2021/05/25 16:11:32;;;;;;;13.65;5.38;;;640.80;1484.80;;;;;;4991982;28;20034;-78
2021/05/25 16:14:01;;;;;;;17.90;9.20;;;640.90;1484.80;;;;;;4991595;28;20030;-79
2021/05/25 16:16:30;;;;;;;14.23;7.40;;;640.40;1484.80;;;;;;4992247;28;20042;-79
2021/05/25 16:18:56;;;;;;;11.25;5.07;;;640.70;1484.80;;;;;;4993372;28;20014;-79
2021/05/25 16:21:22;;;;;;;14.27;5.45;;;640.70;1484.80;;;;;;4990903;28;20397;-78
2021/05/25 16:23:48;;;;;;;11.57;5.05;;;640.70;1459.20;;;;;;4991632;28;20025;-78
2021/05/25 16:26:14;;;;;;;10.45;5.22;;;640.70;1459.20;;;;;;4991485;28;20038;-78
2021/05/25 16:28:41;;;;;;;8.40;4.47;;;640.70;1484.80;;;;;;4994366;28;20101;-79
2021/05/25 16:31:07;;;;;;;11.52;5.47;;;640.30;1484.80;;;;;;4996181;28;20049;-82
2021/05/25 16:33:32;;;;;;;13.43;5.70;;;640.60;1484.80;;;;;;4999989;28;20472;-78
2021/05/25 16:35:58;;;;;;;11.13;4.60;;;640.60;1459.20;;;;;;5002576;28;20044;-79
2021/05/25 16:38:26;;;;;;;7.90;4.70;;;640.40;1484.80;;;;;;5000788;28;20121;-78
2021/05/25 16:40:51;;;;;;;12.45;5.03;;;640.40;1484.80;;;;;;5002888;28;20017;-78
2021/05/25 16:43:17;;;;;;;15.40;6.20;;;640.20;1510.40;;;;;;4999926;28;20029;-79
2021/05/25 16:45:43;;;;;;;23.02;8.57;;;640.20;1510.40;;;;;;4997533;28;20411;-78
2021/05/25 16:48:09;;;;;;;73.80;50.42;;;640.00;1510.40;;;;;;5008494;28;20380;-78
2021/05/25 16:50:35;;;;;;;24.50;15.05;;;615.30;1536.00;;;;;;5011396;28;20471;-79
2021/05/25 16:53:00;;;;;;;16.00;7.13;;;615.20;1536.00;;;;;;5010715;28;20129;-78
2021/05/25 16:55:26;;;;;;;11.48;5.85;;;615.10;1536.00;;;;;;5011216;28;20062;-79
2021/05/25 16:57:52;;;;;;;19.95;11.77;;;615.00;1536.00;;;;;;5012248;28;20048;-78
2021/05/25 17:03:30;;;;;;;25.27;14.23;;;615.00;1536.00;;;;;;4952800;29;20092;-79
2021/05/25 17:06:14;;;;;;;41.10;25.70;;;614.80;1536.00;;;;;;4935379;29;20489;-78
2021/05/25 17:19:38;;;;;;;32.47;18.98;;;614.60;1587.20;;;;;;4876314;29;20554;-79
2021/05/25 17:22:04;;;;;;;21.88;11.02;;;614.60;1587.20;;;;;;4860485;29;20033;-79
2021/05/25 17:27:08;;;;;;;12.90;5.10;;;614.40;1612.80;;;;;;4876826;29;20052;-82
2021/05/25 17:29:34;;;;;;;9.45;4.90;;;589.70;1612.80;;;;;;4870392;29;20549;-81
2021/05/25 17:31:59;;;;;;;12.65;5.10;;;589.60;1638.40;;;;;;4871371;29;20037;-82
2021/05/25 17:34:25;;;;;;;15.25;6.95;;;589.50;1612.80;;;;;;4885364;29;20107;-80
2021/05/25 17:36:51;;;;;;;8.18;5.03;;;589.40;1664.00;;;;;;4870785;29;20527;-84
2021/05/25 17:39:18;;;;;;;10.82;4.78;;;589.40;1638.40;;;;;;4879045;29;20032;-79
2021/05/25 17:41:44;;;;;;;12.38;5.35;;;589.30;1638.40;;;;;;4944732;29;20104;-76
2021/05/25 17:44:10;;;;;;;11.75;4.70;;;589.30;1664.00;;;;;;4948833;28;20036;-83
2021/05/25 17:46:37;;;;;;;6.32;3.47;;;589.20;1689.60;;;;;;4960219;28;20079;-81
2021/05/25 17:49:04;;;;;;;10.43;4.00;;;589.10;1664.00;;;;;;4947538;29;20055;-80
2021/05/25 17:51:30;;;;;;;9.73;4.15;;;589.10;1664.00;;;;;;4981445;28;20038;-82
2021/05/25 17:53:56;;;;;;;9.85;4.50;;;589.00;1664.00;;;;;;4995531;28;20030;-81
2021/05/25 17:56:22;;;;;;;8.30;3.88;;;588.80;1689.60;;;;;;4995229;28;20042;-85
2021/05/25 17:58:50;;;;;;;7.40;3.50;;;588.80;1689.60;;;;;;4997030;28;20089;-85
2021/05/25 18:01:16;;;;;;;17.52;4.32;;;564.10;1715.20;;;;;;4995630;28;20035;-85
2021/05/25 18:03:42;;;;;;;13.27;4.28;;;564.00;1715.20;;;;;;4996184;28;20038;-85
2021/05/25 18:06:11;;;;;;;10.25;3.67;;;563.90;1715.20;;;;;;4993922;28;20037;-88
2021/05/25 18:08:39;;;;;;;9.73;4.15;;;564.10;1740.80;;;;;;4996147;28;20023;-86
2021/05/25 18:11:05;;;;;;;6.55;3.47;;;563.60;1740.80;;;;;;4996863;28;20495;-86
2021/05/25 18:13:31;;;;;;;5.55;2.95;;;563.60;1740.80;;;;;;4995994;28;20058;-88
2021/05/25 18:15:57;;;;;;;11.70;3.63;;;563.50;1740.80;;;;;;4997673;28;20034;-85
2021/05/25 18:18:25;;;;;;;5.10;2.50;;;563.20;1766.40;;;;;;4997465;28;20101;-85
2021/05/25 18:20:52;;;;;;;11.70;3.17;;;538.50;1740.80;;;;;;4997989;28;20027;-87
2021/05/25 18:23:18;;;;;;;13.45;2.50;;;538.50;1740.80;;;;;;5007966;28;20022;-82
2021/05/25 18:25:44;;;;;;;11.10;2.95;;;538.30;1766.40;;;;;;5019478;28;20041;-81
2021/05/25 18:28:11;;;;;;;6.60;2.97;;;538.30;1740.80;;;;;;5018977;28;20042;-85
2021/05/25 18:33:27;;;;;;;6.90;2.83;;;538.10;1740.80;;;;;;4974288;28;20142;-88
2021/05/25 18:36:03;;;;;;;6.05;2.85;;;538.10;1740.80;;;;;;4956310;28;20047;-85
2021/05/25 18:43:54;;;;;;;5.18;2.53;;;538.00;1740.80;;;;;;4975309;28;20081;-86
2021/05/25 18:46:19;;;;;;;9.55;3.10;;;537.90;1740.80;;;;;;4974374;28;20066;-89
2021/05/25 18:48:45;;;;;;;8.55;2.88;;;537.90;1740.80;;;;;;4973342;28;20059;-83
2021/05/25 18:51:11;;;;;;;9.13;3.08;;;537.90;1766.40;;;;;;4973801;28;20117;-90
2021/05/25 18:53:37;;;;;;;9.05;2.50;;;537.80;1766.40;;;;;;4973570;28;20135;-83
2021/05/25 18:56:03;;;;;;;4.72;2.72;;;537.70;1792.00;;;;;;4969144;28;20035;-87
2021/05/25 18:58:41;;;;;;;7.30;2.78;;;537.90;1766.40;;;;;;4974101;28;20461;-86
2021/05/25 19:01:07;;;;;;;4.40;2.20;;;537.70;1766.40;;;;;;4961244;28;20026;-90
2021/05/25 19:03:37;;;;;;;5.60;2.50;;;537.60;1766.40;;;;;;4981641;28;20035;-84
2021/05/25 19:06:04;;;;;;;10.23;3.22;;;512.90;1792.00;;;;;;4969719;28;20027;-88
2021/05/25 19:08:32;;;;;;;6.03;2.45;;;512.90;1766.40;;;;;;4975010;28;20068;-90
2021/05/25 19:10:59;;;;;;;4.70;2.30;;;512.90;1766.40;;;;;;5017848;28;20125;-82
2021/05/25 19:13:25;;;;;;;10.50;2.22;;;512.70;1715.20;;;;;;5018105;28;20030;-80
2021/05/25 19:15:51;;;;;;;8.60;2.45;;;512.50;1740.80;;;;;;5013513;28;20438;-82
2021/05/25 19:18:17;;;;;;;6.88;2.45;;;512.40;1766.40;;;;;;5015013;28;20017;-85
2021/05/25 19:25:37;;;;;;;6.75;2.17;;;512.20;1766.40;;;;;;5014556;28;20467;-83
2021/05/25 19:28:03;;;;;;;4.38;1.77;;;512.10;1715.20;;;;;;5011181;28;20502;-81
2021/05/25 19:30:29;;;;;;;6.38;1.63;;;487.30;1740.80;;;;;;5005244;28;20037;-82
2021/05/25 19:32:55;;;;;;;3.92;1.30;;;487.20;1740.80;;;;;;5005926;28;20028;-84
2021/05/25 19:35:23;;;;;;;8.27;2.15;;;487.00;1740.80;;;;;;5003808;28;20030;-84
2021/05/25 19:37:49;;;;;;;8.38;1.52;;;487.00;1715.20;;;;;;5004274;28;20191;-83
2021/05/25 19:40:15;;;;;;;14.07;1.45;;;486.80;1689.60;;;;;;5001960;28;20021;-82
2021/05/25 19:42:41;;;;;;;10.52;1.90;;;486.50;1689.60;;;;;;5003549;28;20030;-82
2021/05/25 19:45:08;;;;;;;4.50;1.67;;;461.60;1715.20;;;;;;4999314;28;20027;-84
2021/05/25 19:47:34;;;;;;;5.13;1.55;;;461.40;1715.20;;;;;;5005038;28;20016;-84
2021/05/25 19:50:02;;;;;;;5.07;1.33;;;461.50;1740.80;;;;;;5002397;28;20037;-84
2021/05/25 19:52:28;;;;;;;5.03;1.55;;;461.20;1766.40;;;;;;5006654;28;20018;-85
2021/05/25 19:54:54;;;;;;;5.43;1.58;;;461.10;1766.40;;;;;;5004006;28;20517;-85
2021/05/25 19:57:19;;;;;;;8.90;2.05;;;461.00;1792.00;;;;;;5004285;28;20057;-81
2021/05/25 19:59:45;;;;;;;5.93;1.83;;;;;;;;;;5001495;28;20648;-83
2021/05/25 20:02:11;;;;;;;3.58;1.38;;;460.80;1766.40;;;;;;5002421;28;20068;-82
2021/05/25 20:04:37;;;;;;;5.05;2.00;;;435.90;1740.80;;;;;;5005252;28;20415;-82
2021/05/25 20:07:03;;;;;;;5.30;2.00;;;435.80;1766.40;;;;;;5002762;28;20041;-86
2021/05/25 20:09:28;;;;;;;10.73;2.10;;;435.90;1792.00;;;;;;5007409;28;20053;-82
2021/05/25 20:11:54;;;;;;;5.43;1.45;;;435.70;1920.00;;;;;;5011323;28;20570;-85
2021/05/25 20:14:20;;;;;;;7.63;1.73;;;435.60;1920.00;;;;;;5006189;28;20072;-84
2021/05/25 20:16:46;;;;;;;5.63;2.15;;;435.50;1945.60;;;;;;4996406;28;20397;-82
2021/05/25 20:19:11;;;;;;;6.38;1.83;;;435.50;1996.80;;;;;;4988080;28;20096;-83
2021/05/25 20:21:38;;;;;;;6.60;1.77;;;435.50;1945.60;;;;;;4994342;28;20523;-86
2021/05/25 20:24:04;;;;;;;4.90;1.95;;;435.60;1945.60;;;;;;4993818;28;20035;-89
2021/05/25 20:26:30;;;;;;;5.03;1.73;;;435.80;1920.00;;;;;;4993990;28;20451;-85
2021/05/25 20:28:55;;;;;;;15.15;8.82;;;435.70;1894.40;;;;;;4992766;28;20053;-86
2021/05/25 20:31:21;;;;;;;12.25;3.47;;;435.70;1945.60;;;;;;4994603;28;20038;-83
2021/05/25 20:39:09;;;;;;;5.70;1.80;;;435.60;1920.00;;;;;;4989118;28;20056;-82
2021/05/25 20:41:35;;;;;;;5.78;2.65;;;436.00;1843.20;;;;;;4989034;28;20054;-83
2021/05/25 20:44:02;;;;;;;4.45;1.45;;;435.70;1843.20;;;;;;4990356;28;20532;-83
2021/05/25 20:46:32;;;;;;;7.43;1.80;;;435.80;1817.60;;;;;;4991948;28;20152;-80
2021/05/25 20:48:58;;;;;;;7.10;1.88;;;435.80;1843.20;;;;;;4992010;28;20045;-82
2021/05/25 20:51:23;;;;;;;7.10;1.67;;;435.90;1868.80;;;;;;4991683;28;20026;-82
2021/05/25 20:53:49;;;;;;;6.32;1.77;;;435.70;1843.20;;;;;;4991087;28;20027;-81
2021/05/25 20:56:15;;;;;;;5.28;1.88;;;435.60;1843.20;;;;;;4991186;28;20492;-81
2021/05/25 20:58:41;;;;;;;5.28;2.20;;;435.30;1894.40;;;;;;4992182;28;20026;-82
2021/05/25 21:01:07;;;;;;;7.72;2.10;;;410.30;1920.00;;;;;;4989471;28;20121;-82
2021/05/25 21:03:33;;;;;;;4.78;1.98;;;410.10;1920.00;;;;;;4992286;28;20023;-84
2021/05/25 21:05:59;;;;;;;3.72;1.67;;;410.00;1920.00;;;;;;4991768;28;20487;-81
2021/05/25 21:08:25;;;;;;;5.93;1.63;;;409.60;1945.60;;;;;;4992731;28;20033;-80
2021/05/25 21:10:50;;;;;;;11.07;2.95;;;384.90;2022.40;;;;;;4991369;28;20065;-79
2021/05/25 21:13:17;;;;;;;4.45;2.00;;;384.70;2099.20;;;;;;4992354;28;20026;-79
2021/05/25 21:15:44;;;;;;;5.65;2.10;;;384.60;2150.40;;;;;;4991624;28;20096;-78